CheckWX is a tool to help pilots better visualize weather data.  It is not intended as a substitute for an official pre-flight weather briefing.

21:58:25 UTC

LJPZ METAR
Portoroz Airport Airport
Portoroz, Slovenia
Current

58 mins ago

LJPZ 102100Z AUTO 12006KT 9999 NCD 21/18 Q1013
Observed
Jul-10 @ 21:00 UTC
Wind
  • 120° at 6 KTS
Visibility
10,000+ meters
Flight Rules
VFR
Cloud Levels
  • Clear skies
Temperature
21°C / 70°F
Dewpoint
18°C / 64°F
Humidity
83%
Altimeter
29.91" Hg
Pressure
1012.92 hPa
Previous

1 hour ago

LJPZ 102030Z AUTO 12006KT 9999 NCD 21/18 Q1013
Observed
Jul-10 @ 20:30 UTC
Wind
  • 120° at 6 KTS
Visibility
10,000+ meters
Flight Rules
VFR
Cloud Levels
  • Clear skies
Temperature
21°C / 70°F
Dewpoint
18°C / 64°F
Humidity
83%
Altimeter
29.91" Hg
Pressure
1012.92 hPa
Previous

2 hours ago

LJPZ 102000Z 13004KT CAVOK 22/19 Q1013
Observed
Jul-10 @ 20:00 UTC
Wind
  • 130° at 4 KTS
Visibility
10,000+ meters
Flight Rules
VFR
Cloud Levels
  • Clear skies
Temperature
22°C / 72°F
Dewpoint
19°C / 66°F
Humidity
83%
Altimeter
29.91" Hg
Pressure
1012.92 hPa